createdAt,value
2023-04-06T00:00:11.023Z,1.20
2023-04-06T00:02:40.706Z,1.07
2023-04-06T00:05:10.570Z,1.60
2023-04-06T00:07:40.053Z,1.40
2023-04-06T00:10:10.634Z,0.93
2023-04-06T00:12:40.113Z,0.97
2023-04-06T00:15:10.478Z,1.20
2023-04-06T00:17:40.022Z,0.90
2023-04-06T00:20:10.644Z,0.80
2023-04-06T00:22:40.166Z,0.70
2023-04-06T00:25:11.455Z,0.67
2023-04-06T00:27:41.522Z,0.77
2023-04-06T00:30:11.816Z,0.93
2023-04-06T00:32:41.314Z,0.90
2023-04-06T00:35:11.869Z,1.10
2023-04-06T00:37:41.652Z,1.10
2023-04-06T00:40:12.209Z,0.80
2023-04-06T00:42:42.840Z,1.10
2023-04-06T00:45:12.796Z,1.10
2023-04-06T00:47:42.367Z,0.77
2023-04-06T00:50:12.000Z,0.70
2023-04-06T00:52:41.522Z,0.70
2023-04-06T00:55:11.346Z,0.83
2023-04-06T00:57:41.093Z,0.80
2023-04-06T01:00:12.479Z,0.73
2023-04-06T01:02:42.095Z,0.57
2023-04-06T01:05:11.754Z,0.70
2023-04-06T01:07:41.330Z,0.90
2023-04-06T01:10:11.250Z,0.83
2023-04-06T01:12:40.960Z,0.80
2023-04-06T01:15:12.088Z,0.77
2023-04-06T01:17:41.621Z,0.80
2023-04-06T01:20:11.332Z,0.80
2023-04-06T01:22:41.080Z,0.60
2023-04-06T01:25:12.515Z,0.60
2023-04-06T01:27:42.003Z,0.80
2023-04-06T01:30:11.874Z,0.80
2023-04-06T01:32:41.426Z,0.57
2023-04-06T01:35:11.319Z,0.60
2023-04-06T01:40:31.010Z,0.50
2023-04-06T01:43:00.492Z,0.40
2023-04-06T01:45:30.054Z,0.57
2023-04-06T01:47:59.540Z,0.60
2023-04-06T01:50:29.115Z,0.40
2023-04-06T01:52:58.581Z,0.70
2023-04-06T01:55:28.082Z,0.63
2023-04-06T01:57:57.579Z,1.00
2023-04-06T02:00:27.063Z,0.70
2023-04-06T02:02:56.588Z,0.87
2023-04-06T02:05:26.856Z,1.17
2023-04-06T02:07:56.404Z,0.60
2023-04-06T02:10:26.227Z,0.90
2023-04-06T02:12:55.810Z,0.60
2023-04-06T02:15:25.300Z,1.00
2023-04-06T02:17:55.493Z,0.80
2023-04-06T02:20:25.048Z,0.70
2023-04-06T02:22:54.526Z,0.57
2023-04-06T02:25:24.045Z,0.80
2023-04-06T02:27:53.517Z,0.70
2023-04-06T02:30:22.992Z,0.70
2023-04-06T02:32:52.546Z,0.80
2023-04-06T02:35:22.057Z,0.43
2023-04-06T02:37:51.618Z,0.60
2023-04-06T02:40:21.094Z,0.50
2023-04-06T02:42:50.837Z,0.50
2023-04-06T02:45:20.905Z,0.60
2023-04-06T02:47:50.686Z,0.87
2023-04-06T02:50:20.208Z,0.60
2023-04-06T02:52:49.695Z,1.00
2023-04-06T02:55:22.172Z,0.97
2023-04-06T02:57:51.608Z,0.80
2023-04-06T03:00:21.815Z,0.80
2023-04-06T03:02:51.402Z,0.67
2023-04-06T03:05:21.226Z,0.70
2023-04-06T03:07:50.797Z,0.60
2023-04-06T03:10:20.291Z,0.60
2023-04-06T03:12:49.808Z,0.70
2023-04-06T03:15:19.277Z,1.03
2023-04-06T03:17:48.813Z,0.90
2023-04-06T03:20:18.321Z,0.90
2023-04-06T03:22:47.813Z,0.50
2023-04-06T03:25:17.294Z,0.60
2023-04-06T03:27:46.793Z,0.90
2023-04-06T03:30:18.042Z,0.80
2023-04-06T03:32:47.712Z,0.60
2023-04-06T03:35:17.191Z,0.80
2023-04-06T03:37:46.672Z,0.50
2023-04-06T03:40:16.267Z,0.90
2023-04-06T03:42:45.763Z,0.70
2023-04-06T03:45:15.399Z,0.80
2023-04-06T03:47:44.979Z,0.50
2023-04-06T03:50:14.447Z,0.63
2023-04-06T03:52:43.939Z,0.70
2023-04-06T03:55:13.404Z,0.80
2023-04-06T03:57:42.959Z,0.70
2023-04-06T04:00:13.709Z,0.70
2023-04-06T04:02:43.244Z,0.50
2023-04-06T04:05:12.870Z,0.87
2023-04-06T04:07:42.380Z,0.97
2023-04-06T04:10:12.125Z,0.63
2023-04-06T04:12:41.711Z,0.80
2023-04-06T04:15:11.848Z,0.50
2023-04-06T04:17:43.275Z,0.63
2023-04-06T04:20:13.067Z,0.70
2023-04-06T04:22:42.931Z,0.70
2023-04-06T04:25:12.676Z,0.87
2023-04-06T04:27:42.168Z,0.60
2023-04-06T04:30:11.789Z,0.70
2023-04-06T04:32:41.289Z,0.70
2023-04-06T04:35:12.375Z,0.70
2023-04-06T04:37:43.313Z,0.50
2023-04-06T04:40:13.504Z,0.70
2023-04-06T04:42:43.015Z,0.70
2023-04-06T04:45:12.755Z,1.00
2023-04-06T04:47:42.318Z,0.80
2023-04-06T04:50:12.289Z,0.53
2023-04-06T04:52:41.798Z,0.93
2023-04-06T04:55:11.352Z,0.60
2023-04-06T04:57:40.909Z,0.70
2023-04-06T05:00:11.083Z,0.90
2023-04-06T05:02:40.776Z,0.87
2023-04-06T05:05:10.752Z,0.70
2023-04-06T05:07:40.607Z,0.77
2023-04-06T05:10:10.924Z,0.83
2023-04-06T05:12:41.032Z,0.90
2023-04-06T05:15:11.839Z,1.13
2023-04-06T05:17:41.425Z,0.80
2023-04-06T05:20:11.745Z,0.80
2023-04-06T05:22:41.286Z,0.70
2023-04-06T05:25:11.191Z,0.90
2023-04-06T05:27:40.764Z,0.83
2023-04-06T05:30:10.897Z,0.50
2023-04-06T05:32:40.557Z,0.40
2023-04-06T05:35:10.345Z,0.83
2023-04-06T05:37:40.275Z,0.97
2023-04-06T05:40:10.655Z,1.10
2023-04-06T05:42:44.366Z,1.20
2023-04-06T05:45:16.006Z,1.10
2023-04-06T05:47:47.017Z,0.60
2023-04-06T05:50:18.388Z,1.20
2023-04-06T05:52:47.860Z,1.20
2023-04-06T05:55:17.373Z,0.73
2023-04-06T05:57:46.839Z,1.13
2023-04-06T06:00:17.138Z,1.00
2023-04-06T06:02:46.655Z,0.83
2023-04-06T06:05:16.254Z,1.23
2023-04-06T06:07:45.777Z,1.17
2023-04-06T06:10:15.347Z,1.30
2023-04-06T06:12:44.824Z,1.20
2023-04-06T06:15:14.675Z,1.90
2023-04-06T06:17:44.356Z,1.43
2023-04-06T06:20:14.254Z,1.70
2023-04-06T06:22:43.720Z,2.30
2023-04-06T06:25:13.212Z,2.00
2023-04-06T06:27:43.356Z,2.37
2023-04-06T06:30:13.066Z,1.97
2023-04-06T06:32:42.576Z,2.10
2023-04-06T06:35:12.054Z,1.90
2023-04-06T06:37:41.564Z,2.40
2023-04-06T06:40:14.248Z,2.40
2023-04-06T06:42:43.862Z,2.00
2023-04-06T06:45:13.430Z,1.67
2023-04-06T06:47:42.916Z,2.43
2023-04-06T06:50:12.549Z,2.00
2023-04-06T06:52:43.163Z,2.20
2023-04-06T06:55:13.314Z,2.50
2023-04-06T06:57:43.553Z,2.37
2023-04-06T07:00:14.288Z,2.30
2023-04-06T07:02:44.165Z,2.30
2023-04-06T07:05:26.833Z,2.30
2023-04-06T07:07:45.016Z,2.00
2023-04-06T07:10:14.504Z,1.90
2023-04-06T07:12:43.967Z,1.83
2023-04-06T07:15:13.552Z,1.80
2023-04-06T07:17:43.068Z,2.00
2023-04-06T07:20:13.241Z,2.00
2023-04-06T07:22:45.448Z,2.67
2023-04-06T07:25:15.384Z,2.30
2023-04-06T07:27:44.838Z,2.17
2023-04-06T07:30:14.793Z,2.33
2023-04-06T07:32:44.331Z,2.50
2023-04-06T07:35:13.882Z,2.77
2023-04-06T07:37:43.624Z,2.13
2023-04-06T07:40:13.258Z,2.58
2023-04-06T07:42:42.813Z,2.10
2023-04-06T07:45:12.718Z,2.23
2023-04-06T07:47:42.271Z,1.90
2023-04-06T07:50:12.298Z,2.00
2023-04-06T07:52:42.259Z,2.10
2023-04-06T07:55:11.830Z,2.00
2023-04-06T07:57:41.389Z,1.90
2023-04-06T08:00:12.464Z,1.80
2023-04-06T08:02:42.058Z,1.70
2023-04-06T08:05:12.071Z,1.90
2023-04-06T08:07:42.621Z,1.70
2023-04-06T08:10:12.456Z,2.10
2023-04-06T08:12:41.934Z,1.60
2023-04-06T08:15:11.892Z,2.00
2023-04-06T08:17:41.400Z,1.60
2023-04-06T08:20:12.711Z,1.57
2023-04-06T08:22:42.188Z,1.53
2023-04-06T08:25:11.766Z,1.70
2023-04-06T08:27:41.244Z,1.90
2023-04-06T08:30:11.928Z,1.60
2023-04-06T08:32:42.344Z,1.70
2023-04-06T08:35:12.024Z,2.00
2023-04-06T08:37:42.009Z,1.63
2023-04-06T08:40:12.286Z,1.40
2023-04-06T08:42:46.529Z,1.60
2023-04-06T08:45:18.943Z,1.70
2023-04-06T08:47:50.563Z,1.10
2023-04-06T08:50:20.961Z,1.20
2023-04-06T08:52:51.417Z,1.83
2023-04-06T08:55:21.137Z,1.60
2023-04-06T08:57:50.986Z,1.40
2023-04-06T09:00:21.697Z,1.30
2023-04-06T09:02:55.509Z,1.60
2023-04-06T09:05:27.323Z,1.33
2023-04-06T09:07:57.153Z,1.40
2023-04-06T09:10:27.210Z,1.30
2023-04-06T09:13:10.634Z,1.53
2023-04-06T09:15:42.077Z,1.70
2023-04-06T09:18:11.608Z,1.73
2023-04-06T09:20:41.272Z,1.37
2023-04-06T09:23:21.273Z,1.10
2023-04-06T09:25:50.924Z,1.10
2023-04-06T09:28:20.448Z,1.23
2023-04-06T09:30:53.000Z,1.00
2023-04-06T09:33:26.677Z,0.77
2023-04-06T09:36:17.973Z,1.00
2023-04-06T09:38:59.233Z,1.53
2023-04-06T09:41:31.362Z,1.00
2023-04-06T09:44:10.247Z,1.20
2023-04-06T09:46:59.096Z,1.60
2023-04-06T09:49:16.310Z,1.33
2023-04-06T09:51:52.850Z,1.30
2023-04-06T09:54:25.353Z,1.40
2023-04-06T09:57:04.664Z,1.50
2023-04-06T10:00:08.851Z,1.20
2023-04-06T10:03:09.652Z,1.87
2023-04-06T10:05:45.973Z,2.10
2023-04-06T10:08:17.192Z,1.50
2023-04-06T10:10:47.846Z,1.63
2023-04-06T10:13:18.250Z,1.77
2023-04-06T10:15:48.789Z,2.00
2023-04-06T10:18:20.874Z,1.70
2023-04-06T10:21:14.601Z,1.80
2023-04-06T10:23:57.561Z,1.27
2023-04-06T10:26:27.324Z,1.30
2023-04-06T10:28:57.291Z,1.90
2023-04-06T10:31:30.515Z,1.60
2023-04-06T10:34:05.228Z,2.27
2023-04-06T10:36:38.093Z,1.90
2023-04-06T10:39:08.736Z,1.80
2023-04-06T10:41:46.698Z,1.03
2023-04-06T10:44:26.264Z,1.40
2023-04-06T10:46:58.770Z,1.40
2023-04-06T10:49:28.538Z,1.63
2023-04-06T10:51:59.357Z,2.00
2023-04-06T10:54:31.217Z,1.60
2023-04-06T10:57:01.908Z,1.73
2023-04-06T10:59:32.202Z,1.87
2023-04-06T11:02:01.837Z,2.00
2023-04-06T11:04:31.971Z,1.87
2023-04-06T11:07:01.472Z,1.07
2023-04-06T11:09:37.105Z,2.50
2023-04-06T11:12:06.816Z,2.00
2023-04-06T11:14:36.391Z,1.60
2023-04-06T11:17:06.512Z,1.27
2023-04-06T11:19:37.404Z,0.93
2023-04-06T11:22:11.091Z,1.93
2023-04-06T11:24:40.566Z,1.70
2023-04-06T11:27:10.696Z,1.80
2023-04-06T11:29:41.825Z,1.80
2023-04-06T11:32:11.556Z,1.60
2023-04-06T11:34:42.555Z,1.77
2023-04-06T11:37:14.419Z,1.30
2023-04-06T11:39:58.100Z,1.23
2023-04-06T11:42:30.485Z,1.70
2023-04-06T11:45:01.815Z,1.47
2023-04-06T11:48:00.353Z,1.60
2023-04-06T11:50:35.884Z,2.03
2023-04-06T11:53:05.480Z,1.97
2023-04-06T11:55:41.091Z,1.20
2023-04-06T11:58:10.750Z,2.03
2023-04-06T12:00:40.282Z,1.60
2023-04-06T12:03:09.857Z,1.50
2023-04-06T12:05:39.762Z,1.83
2023-04-06T12:08:09.254Z,2.13
2023-04-06T12:10:40.356Z,2.10
2023-04-06T12:13:09.845Z,1.80
2023-04-06T12:15:39.326Z,1.83
2023-04-06T12:18:08.927Z,1.83
2023-04-06T12:20:38.458Z,2.00
2023-04-06T12:23:08.016Z,1.90
2023-04-06T12:25:37.510Z,2.27
2023-04-06T12:28:07.055Z,1.93
2023-04-06T12:30:38.254Z,1.80
2023-04-06T12:33:07.882Z,1.90
2023-04-06T12:35:38.379Z,1.60
2023-04-06T12:38:07.935Z,1.73
2023-04-06T12:40:41.312Z,1.77
2023-04-06T12:43:11.087Z,1.67
2023-04-06T12:45:41.636Z,1.57
2023-04-06T12:48:11.104Z,2.10
2023-04-06T12:50:40.688Z,1.30
2023-04-06T12:53:10.160Z,1.30
2023-04-06T12:55:40.119Z,1.97
2023-04-06T12:58:09.599Z,1.50
2023-04-06T13:00:39.136Z,1.27
2023-04-06T13:03:08.639Z,0.93
2023-04-06T13:05:38.169Z,0.97
2023-04-06T13:08:07.670Z,1.00
2023-04-06T13:10:37.153Z,1.10
2023-04-06T13:13:06.836Z,1.47
2023-04-06T13:15:37.310Z,1.90
2023-04-06T13:18:07.055Z,2.40
2023-04-06T13:20:36.915Z,1.60
2023-04-06T13:23:06.403Z,2.07
2023-04-06T13:25:36.124Z,1.70
2023-04-06T13:28:05.631Z,2.20
2023-04-06T13:30:35.293Z,1.53
2023-04-06T13:33:05.981Z,1.07
2023-04-06T13:35:36.709Z,1.60
2023-04-06T13:38:06.242Z,1.20
2023-04-06T13:40:35.750Z,2.30
2023-04-06T13:43:05.424Z,1.90
2023-04-06T13:45:35.251Z,2.33
2023-04-06T13:48:04.900Z,2.07
2023-04-06T13:50:35.638Z,1.83
2023-04-06T13:53:05.114Z,1.67
2023-04-06T13:55:34.628Z,1.40
2023-04-06T13:58:04.186Z,1.27
2023-04-06T14:00:33.761Z,1.10
2023-04-06T14:03:03.473Z,1.70
2023-04-06T14:05:36.476Z,1.70
2023-04-06T14:08:05.973Z,1.53
2023-04-06T14:10:41.731Z,1.30
2023-04-06T14:13:11.449Z,1.40
2023-04-06T14:15:41.378Z,1.20
2023-04-06T14:18:11.463Z,1.07
2023-04-06T14:20:40.958Z,1.00
2023-04-06T14:23:10.614Z,1.00
2023-04-06T14:25:40.133Z,0.70
2023-04-06T14:28:09.575Z,0.80
2023-04-06T14:30:39.245Z,0.50
2023-04-06T14:33:08.827Z,0.97
2023-04-06T14:35:42.589Z,1.50
2023-04-06T14:38:12.068Z,1.40
2023-04-06T14:40:42.007Z,1.80
2023-04-06T14:43:11.477Z,1.53
2023-04-06T14:45:41.067Z,1.20
2023-04-06T14:48:12.176Z,0.93
2023-04-06T14:50:42.615Z,0.90
2023-04-06T14:53:12.469Z,1.20
2023-04-06T14:55:43.025Z,1.17
2023-04-06T14:58:12.499Z,1.43
2023-04-06T15:00:42.000Z,1.10
2023-04-06T15:03:11.734Z,0.80
2023-04-06T15:05:41.532Z,0.73
2023-04-06T15:08:12.829Z,0.67
2023-04-06T15:10:42.397Z,1.10
2023-04-06T15:13:11.869Z,1.30
2023-04-06T15:15:42.866Z,0.80
2023-04-06T15:18:13.671Z,0.70
2023-04-06T15:20:44.590Z,1.10
2023-04-06T15:23:14.098Z,1.20
2023-04-06T15:25:43.593Z,1.00
2023-04-06T15:28:13.139Z,1.10
2023-04-06T15:30:42.657Z,0.90
2023-04-06T15:33:12.306Z,1.00
2023-04-06T15:35:43.611Z,0.87
2023-04-06T15:38:13.477Z,0.80
2023-04-06T15:40:46.756Z,1.10
2023-04-06T15:43:17.533Z,1.00
2023-04-06T15:45:47.735Z,1.30
2023-04-06T15:48:17.215Z,1.47
2023-04-06T15:50:47.400Z,1.77
2023-04-06T15:53:16.882Z,1.30
2023-04-06T15:55:46.655Z,2.13
2023-04-06T15:58:16.507Z,1.70
2023-04-06T16:00:46.082Z,1.70
2023-04-06T16:03:15.828Z,1.70
2023-04-06T16:05:53.962Z,1.83
2023-04-06T16:08:19.498Z,1.00
2023-04-06T16:10:49.771Z,1.90
2023-04-06T16:13:20.029Z,1.47
2023-04-06T16:15:53.844Z,1.33
2023-04-06T16:18:23.416Z,1.70
2023-04-06T16:20:52.907Z,0.83
2023-04-06T16:23:22.753Z,0.80
2023-04-06T16:25:53.894Z,0.80
2023-04-06T16:28:25.033Z,1.10
2023-04-06T16:30:54.705Z,1.10
2023-04-06T16:33:24.446Z,1.03
2023-04-06T16:35:54.225Z,1.00
2023-04-06T16:38:24.120Z,1.07
2023-04-06T16:41:02.250Z,0.80
2023-04-06T16:43:32.328Z,0.80
2023-04-06T16:46:01.833Z,1.03
2023-04-06T16:48:31.380Z,1.40
2023-04-06T16:51:06.175Z,1.27
2023-04-06T16:53:39.893Z,1.67
2023-04-06T16:58:39.602Z,1.17
2023-04-06T17:01:09.197Z,1.30
2023-04-06T17:03:39.021Z,1.40
2023-04-06T17:06:08.787Z,2.07
2023-04-06T17:08:38.288Z,1.83
2023-04-06T17:11:07.777Z,2.30
2023-04-06T17:13:37.440Z,2.40
2023-04-06T17:16:07.869Z,1.90
2023-04-06T17:18:38.090Z,1.97
2023-04-06T17:21:10.653Z,1.70
2023-04-06T17:23:40.438Z,1.50
2023-04-06T17:26:09.993Z,1.30
2023-04-06T17:28:39.666Z,1.47
2023-04-06T17:31:11.480Z,1.20
2023-04-06T17:33:42.962Z,1.10
2023-04-06T17:36:12.691Z,0.70
2023-04-06T17:38:44.152Z,0.90
2023-04-06T17:41:16.094Z,1.17
2023-04-06T17:43:46.020Z,1.23
2023-04-06T17:46:16.066Z,1.03
2023-04-06T17:48:46.766Z,0.90
2023-04-06T17:51:18.209Z,0.70
2023-04-06T17:53:48.243Z,0.80
2023-04-06T17:56:17.729Z,0.60
2023-04-06T17:58:47.232Z,0.70
2023-04-06T18:01:18.402Z,0.63
2023-04-06T18:03:48.015Z,0.77
2023-04-06T18:06:17.981Z,0.70
2023-04-06T18:08:48.062Z,0.50
2023-04-06T18:11:21.461Z,0.50
2023-04-06T18:13:51.111Z,0.40
2023-04-06T18:16:21.521Z,0.40
2023-04-06T18:18:51.871Z,0.70
2023-04-06T18:21:21.378Z,0.70
2023-04-06T18:23:50.938Z,0.80
2023-04-06T18:26:23.241Z,0.60
2023-04-06T18:28:53.096Z,0.50
2023-04-06T18:31:22.592Z,0.50
2023-04-06T18:33:53.818Z,0.60
2023-04-06T18:36:23.391Z,0.40
2023-04-06T18:38:52.889Z,0.50
2023-04-06T18:41:22.560Z,0.67
2023-04-06T18:43:52.233Z,0.83
2023-04-06T18:46:22.593Z,0.70
2023-04-06T18:48:52.325Z,1.00
2023-04-06T18:51:21.820Z,0.93
2023-04-06T18:53:51.404Z,0.97
2023-04-06T18:56:21.328Z,0.80
2023-04-06T18:58:51.145Z,0.80
2023-04-06T19:01:28.295Z,0.90
2023-04-06T19:04:00.040Z,1.07
2023-04-06T19:06:31.107Z,1.00
2023-04-06T19:09:01.176Z,0.80
2023-04-06T19:11:30.724Z,0.90
2023-04-06T19:14:00.439Z,0.87
2023-04-06T19:16:30.066Z,1.00
2023-04-06T19:19:00.028Z,1.00
2023-04-06T19:21:29.577Z,1.20
2023-04-06T19:23:59.273Z,0.93
2023-04-06T19:26:30.527Z,1.33
2023-04-06T19:29:00.056Z,1.23
2023-04-06T19:31:29.587Z,1.20
2023-04-06T19:33:59.163Z,1.10
2023-04-06T19:36:29.383Z,1.10
2023-04-06T19:38:59.279Z,0.80
2023-04-06T19:41:28.774Z,1.03
2023-04-06T19:43:58.266Z,0.90
2023-04-06T19:46:28.120Z,1.10
2023-04-06T19:48:57.657Z,1.03
2023-04-06T19:51:27.229Z,1.20
2023-04-06T19:53:56.730Z,1.13
2023-04-06T19:56:26.226Z,1.00
2023-04-06T19:58:55.708Z,0.87
2023-04-06T20:01:25.696Z,1.50
2023-04-06T20:03:55.305Z,1.33
2023-04-06T20:06:24.864Z,0.93
2023-04-06T20:08:54.421Z,0.97
2023-04-06T20:11:23.985Z,0.67
2023-04-06T20:13:53.579Z,0.53
2023-04-06T20:16:24.022Z,0.70
2023-04-06T20:18:53.584Z,0.67
2023-04-06T20:21:23.256Z,0.80
2023-04-06T20:23:52.861Z,0.73
2023-04-06T20:26:22.539Z,0.90
2023-04-06T20:28:52.048Z,0.63
2023-04-06T20:31:21.544Z,0.70
2023-04-06T20:33:51.021Z,0.57
2023-04-06T20:36:22.164Z,0.57
2023-04-06T20:38:51.873Z,0.80
2023-04-06T20:41:22.057Z,0.85
2023-04-06T20:43:51.589Z,0.70
2023-04-06T20:46:21.223Z,0.50
2023-04-06T20:48:50.940Z,0.83
2023-04-06T20:51:23.988Z,0.60
2023-04-06T20:53:53.744Z,0.60
2023-04-06T20:56:23.621Z,0.63
2023-04-06T20:58:53.743Z,0.80
2023-04-06T21:01:23.906Z,0.73
2023-04-06T21:03:53.545Z,0.83
2023-04-06T21:06:23.236Z,0.87
2023-04-06T21:08:52.716Z,0.80
2023-04-06T21:11:22.200Z,0.63
2023-04-06T21:13:51.712Z,0.50
2023-04-06T21:16:21.729Z,0.80
2023-04-06T21:18:51.788Z,0.70
2023-04-06T21:21:21.274Z,0.83
2023-04-06T21:23:53.867Z,0.70
2023-04-06T21:26:23.371Z,0.77
2023-04-06T21:28:52.855Z,0.80
2023-04-06T21:31:22.643Z,1.00
2023-04-06T21:33:52.195Z,0.63
2023-04-06T21:36:21.841Z,0.70
2023-04-06T21:38:51.306Z,0.60
2023-04-06T21:41:21.975Z,0.70
2023-04-06T21:43:51.460Z,0.60
2023-04-06T21:46:21.039Z,0.70
2023-04-06T21:48:50.613Z,0.70
2023-04-06T21:51:22.932Z,0.60
2023-04-06T21:53:55.193Z,0.90
2023-04-06T21:56:26.890Z,0.67
2023-04-06T21:58:56.650Z,0.80
2023-04-06T22:01:27.961Z,0.72
2023-04-06T22:03:57.755Z,0.90
2023-04-06T22:06:27.460Z,1.00
2023-04-06T22:08:58.200Z,1.20
2023-04-06T22:11:28.008Z,1.07
2023-04-06T22:13:57.496Z,1.00
2023-04-06T22:16:27.193Z,1.10
2023-04-06T22:18:56.706Z,1.20
2023-04-06T22:21:26.978Z,0.90
2023-04-06T22:23:56.489Z,1.10
2023-04-06T22:26:26.397Z,1.13
2023-04-06T22:28:55.939Z,1.50
2023-04-06T22:31:25.945Z,0.90
2023-04-06T22:33:55.463Z,1.03
2023-04-06T22:36:24.985Z,0.90
2023-04-06T22:38:54.459Z,1.20
2023-04-06T22:41:23.986Z,0.67
2023-04-06T22:43:53.442Z,0.80
2023-04-06T22:46:23.228Z,0.90
2023-04-06T22:48:52.784Z,0.83
2023-04-06T22:51:22.271Z,0.80
2023-04-06T22:53:52.413Z,0.70
2023-04-06T22:56:22.187Z,0.73
2023-04-06T22:58:51.785Z,1.17
2023-04-06T23:01:22.143Z,0.90
2023-04-06T23:03:51.676Z,1.00
2023-04-06T23:06:21.257Z,1.10
2023-04-06T23:08:50.808Z,0.90
2023-04-06T23:11:20.911Z,1.53
2023-04-06T23:13:50.378Z,1.47
2023-04-06T23:16:19.909Z,1.30
2023-04-06T23:18:49.369Z,1.10
2023-04-06T23:21:18.870Z,1.20
2023-04-06T23:23:48.364Z,0.90
2023-04-06T23:26:17.833Z,0.90
2023-04-06T23:28:47.314Z,0.90
2023-04-06T23:31:16.808Z,0.93
2023-04-06T23:33:46.354Z,0.90
2023-04-06T23:36:15.996Z,0.60
2023-04-06T23:38:45.796Z,0.77
2023-04-06T23:41:18.256Z,0.63
2023-04-06T23:43:47.783Z,1.10
2023-04-06T23:46:21.452Z,0.73
2023-04-06T23:48:51.214Z,1.13
2023-04-06T23:51:20.762Z,1.00
2023-04-06T23:53:50.280Z,0.90
2023-04-06T23:56:19.766Z,1.10
2023-04-06T23:58:49.236Z,1.23
